createdAt,value
2022-09-27T00:02:33.202Z,13.68
2022-09-27T00:05:38.883Z,13.63
2022-09-27T00:08:44.602Z,13.58
2022-09-27T00:11:50.440Z,13.54
2022-09-27T00:14:55.857Z,13.48
2022-09-27T00:18:01.212Z,13.43
2022-09-27T00:21:12.135Z,13.39
2022-09-27T00:24:19.633Z,13.30
2022-09-27T00:27:26.289Z,13.24
2022-09-27T00:30:31.739Z,13.19
2022-09-27T00:33:37.057Z,13.16
2022-09-27T00:36:42.439Z,13.15
2022-09-27T00:39:47.801Z,13.13
2022-09-27T00:42:53.146Z,13.11
2022-09-27T00:46:03.886Z,13.09
2022-09-27T00:49:18.677Z,13.07
2022-09-27T00:52:28.663Z,13.03
2022-09-27T00:55:39.631Z,13.01
2022-09-27T00:58:49.921Z,12.98
2022-09-27T01:01:56.338Z,12.95
2022-09-27T01:05:02.443Z,12.92
2022-09-27T01:08:07.756Z,12.88
2022-09-27T01:11:36.916Z,12.83
2022-09-27T01:14:56.490Z,12.77
2022-09-27T01:18:22.344Z,12.73
2022-09-27T01:21:50.580Z,12.69
2022-09-27T01:25:14.137Z,12.63
2022-09-27T01:28:32.792Z,12.63
2022-09-27T01:31:44.352Z,12.61
2022-09-27T01:35:01.667Z,12.59
2022-09-27T01:38:19.214Z,12.56
2022-09-27T01:41:34.472Z,12.52
2022-09-27T01:44:46.535Z,12.50
2022-09-27T01:47:56.342Z,12.46
2022-09-27T01:51:08.012Z,12.40
2022-09-27T01:54:18.503Z,12.35
2022-09-27T01:57:28.689Z,12.31
2022-09-27T02:00:34.984Z,12.27
2022-09-27T02:03:42.057Z,12.25
2022-09-27T02:06:54.132Z,12.20
2022-09-27T02:10:03.957Z,12.19
2022-09-27T02:13:19.705Z,12.13
2022-09-27T02:16:35.169Z,12.08
2022-09-27T02:19:52.362Z,12.05
2022-09-27T02:23:04.613Z,12.03
2022-09-27T02:26:17.620Z,11.99
2022-09-27T02:29:29.203Z,11.94
2022-09-27T02:32:34.725Z,11.93
2022-09-27T02:35:40.087Z,11.90
2022-09-27T02:38:46.059Z,11.88
2022-09-27T02:41:52.129Z,11.84
2022-09-27T02:44:57.779Z,11.81
2022-09-27T02:48:13.129Z,11.76
2022-09-27T02:51:33.664Z,11.70
2022-09-27T02:54:53.554Z,11.63
2022-09-27T02:58:12.772Z,11.58
2022-09-27T03:01:26.247Z,11.53
2022-09-27T03:04:38.588Z,11.51
2022-09-27T03:07:44.281Z,11.46
2022-09-27T03:10:49.592Z,11.41
2022-09-27T03:14:08.377Z,11.38
2022-09-27T03:17:14.346Z,11.36
2022-09-27T03:20:19.895Z,11.35
2022-09-27T03:23:25.372Z,11.36
2022-09-27T03:26:30.796Z,11.36
2022-09-27T03:29:36.143Z,11.35
2022-09-27T03:32:45.291Z,11.33
2022-09-27T03:35:50.584Z,11.31
2022-09-27T03:38:56.394Z,11.32
2022-09-27T03:42:01.693Z,11.33
2022-09-27T03:45:08.388Z,11.34
2022-09-27T03:48:14.470Z,11.33
2022-09-27T03:51:20.742Z,11.29
2022-09-27T03:54:25.268Z,11.25
2022-09-27T03:57:32.063Z,11.20
2022-09-27T04:00:37.379Z,11.20
2022-09-27T04:03:42.824Z,11.19
2022-09-27T04:06:48.141Z,11.18
2022-09-27T04:09:53.452Z,11.16
2022-09-27T04:12:58.971Z,11.11
2022-09-27T04:16:04.844Z,11.08
2022-09-27T04:19:10.991Z,11.04
2022-09-27T04:22:15.930Z,11.00
2022-09-27T04:25:21.283Z,10.94
2022-09-27T04:28:28.056Z,10.93
2022-09-27T04:31:33.488Z,10.92
2022-09-27T04:34:56.600Z,10.90
2022-09-27T04:38:02.077Z,10.87
2022-09-27T04:41:07.835Z,10.82
2022-09-27T04:44:13.123Z,10.77
2022-09-27T04:47:21.149Z,10.73
2022-09-27T04:50:26.468Z,10.69
2022-09-27T04:53:32.327Z,10.66
2022-09-27T04:56:37.675Z,10.65
2022-09-27T04:59:43.116Z,10.64
2022-09-27T05:02:49.433Z,10.61
2022-09-27T05:05:55.535Z,10.59
2022-09-27T05:09:00.974Z,10.59
2022-09-27T05:12:07.865Z,10.61
2022-09-27T05:15:13.841Z,10.61
2022-09-27T05:18:19.153Z,10.63
2022-09-27T05:21:24.436Z,10.64
2022-09-27T05:24:30.476Z,10.64
2022-09-27T05:27:35.891Z,10.64
2022-09-27T05:30:41.249Z,10.66
2022-09-27T05:33:46.586Z,10.67
2022-09-27T05:36:52.069Z,10.69
2022-09-27T05:39:57.358Z,10.67
2022-09-27T05:43:02.648Z,10.66
2022-09-27T05:46:08.364Z,10.65
2022-09-27T05:49:13.741Z,10.66
2022-09-27T05:52:20.265Z,10.65
2022-09-27T05:55:27.056Z,10.66
2022-09-27T05:58:32.401Z,10.68
2022-09-27T06:01:37.828Z,10.72
2022-09-27T06:04:43.223Z,10.73
2022-09-27T06:07:49.705Z,10.76
2022-09-27T06:11:04.401Z,10.79
2022-09-27T06:14:09.910Z,10.82
2022-09-27T06:17:15.220Z,10.85
2022-09-27T06:20:20.893Z,10.91
2022-09-27T06:23:26.168Z,10.97
2022-09-27T06:26:31.997Z,11.07
2022-09-27T06:29:37.669Z,11.18
2022-09-27T06:32:42.998Z,11.32
2022-09-27T06:35:50.092Z,11.44
2022-09-27T06:38:55.389Z,11.56
2022-09-27T06:42:00.755Z,11.69
2022-09-27T06:45:07.419Z,11.82
2022-09-27T06:48:14.610Z,11.96
2022-09-27T06:51:20.322Z,12.11
2022-09-27T06:54:25.633Z,12.25
2022-09-27T06:57:48.941Z,12.37
2022-09-27T07:00:55.344Z,12.53
2022-09-27T07:04:00.757Z,12.68
2022-09-27T07:07:06.438Z,12.82
2022-09-27T07:10:12.656Z,12.95
2022-09-27T07:13:17.953Z,13.09
2022-09-27T07:16:23.335Z,13.22
2022-09-27T07:19:28.733Z,13.37
2022-09-27T07:22:34.093Z,13.52
2022-09-27T07:25:39.392Z,13.68
2022-09-27T07:28:45.195Z,13.81
2022-09-27T07:31:50.481Z,13.94
2022-09-27T07:34:55.775Z,14.08
2022-09-27T07:38:01.168Z,14.24
2022-09-27T07:41:11.053Z,14.41
2022-09-27T07:44:16.664Z,14.58
2022-09-27T07:47:24.161Z,14.72
2022-09-27T07:50:30.276Z,14.84
2022-09-27T07:53:34.183Z,14.94
2022-09-27T07:56:39.570Z,15.04
2022-09-27T07:59:45.345Z,15.20
2022-09-27T08:02:50.667Z,15.37
2022-09-27T08:05:56.001Z,15.55
2022-09-27T08:09:01.915Z,15.74
2022-09-27T08:12:07.528Z,15.90
2022-09-27T08:15:13.480Z,16.08
2022-09-27T08:18:22.035Z,16.24
2022-09-27T08:21:27.492Z,16.39
2022-09-27T08:24:32.842Z,16.51
2022-09-27T08:27:38.192Z,16.59
2022-09-27T08:30:43.497Z,16.68
2022-09-27T08:33:51.895Z,16.76
2022-09-27T08:36:57.355Z,16.89
2022-09-27T08:40:03.108Z,17.03
2022-09-27T08:43:18.994Z,17.16
2022-09-27T08:46:37.337Z,17.28
2022-09-27T08:49:46.968Z,17.42
2022-09-27T08:52:57.792Z,17.52
2022-09-27T08:56:04.408Z,17.62
2022-09-27T08:59:21.206Z,17.77
2022-09-27T09:02:27.433Z,17.92
2022-09-27T09:05:35.554Z,18.07
2022-09-27T09:08:52.374Z,18.20
2022-09-27T09:12:24.507Z,18.31
2022-09-27T09:15:54.514Z,18.45
2022-09-27T09:19:15.001Z,18.58
2022-09-27T09:22:43.491Z,18.69
2022-09-27T09:25:57.798Z,18.80
2022-09-27T09:29:23.997Z,18.89
2022-09-27T09:32:45.728Z,18.96
2022-09-27T09:35:59.183Z,19.01
2022-09-27T09:39:13.174Z,19.05
2022-09-27T09:42:26.442Z,19.15
2022-09-27T09:45:35.075Z,19.23
2022-09-27T09:48:46.696Z,19.27
2022-09-27T09:51:57.095Z,19.29
2022-09-27T09:55:08.468Z,19.35
2022-09-27T09:58:25.308Z,19.45
2022-09-27T10:01:35.784Z,19.57
2022-09-27T10:04:41.226Z,19.69
2022-09-27T10:07:48.356Z,19.85
2022-09-27T10:10:53.692Z,19.96
2022-09-27T10:13:59.084Z,19.63
2022-09-27T10:17:11.088Z,19.30
2022-09-27T10:20:27.450Z,19.14
2022-09-27T10:23:33.099Z,19.17
2022-09-27T10:26:40.857Z,19.56
2022-09-27T10:29:46.157Z,19.55
2022-09-27T10:32:57.055Z,19.46
2022-09-27T10:36:03.864Z,19.81
2022-09-27T10:39:21.928Z,19.74
2022-09-27T10:42:36.511Z,19.59
2022-09-27T10:45:42.001Z,19.62
2022-09-27T10:48:47.415Z,19.72
2022-09-27T10:51:56.506Z,19.74
2022-09-27T10:55:08.189Z,19.70
2022-09-27T10:58:22.024Z,19.64
2022-09-27T11:01:28.928Z,19.52
2022-09-27T11:04:37.257Z,19.41
2022-09-27T11:08:24.401Z,19.46
2022-09-27T11:11:30.902Z,19.54
2022-09-27T11:14:37.167Z,19.52
2022-09-27T11:17:52.162Z,19.52
2022-09-27T11:21:09.547Z,19.66
2022-09-27T11:24:27.026Z,20.30
2022-09-27T11:27:46.120Z,20.81
2022-09-27T11:31:04.014Z,20.77
2022-09-27T11:34:32.147Z,20.53
2022-09-27T11:37:49.178Z,20.41
2022-09-27T11:41:12.077Z,20.37
2022-09-27T11:44:33.806Z,20.36
2022-09-27T11:47:51.925Z,20.34
2022-09-27T11:51:11.754Z,20.34
2022-09-27T11:54:34.264Z,20.41
2022-09-27T11:57:44.679Z,20.51
2022-09-27T12:01:08.369Z,20.54
2022-09-27T12:04:33.727Z,20.49
2022-09-27T12:07:43.532Z,20.41
2022-09-27T12:10:54.816Z,20.31
2022-09-27T12:14:03.735Z,20.19
2022-09-27T12:17:14.468Z,20.08
2022-09-27T12:20:26.119Z,20.00
2022-09-27T12:23:40.993Z,19.91
2022-09-27T12:26:48.510Z,19.87
2022-09-27T12:29:56.690Z,19.83
2022-09-27T12:33:09.831Z,19.80
2022-09-27T12:36:21.163Z,19.79
2022-09-27T12:39:31.429Z,19.74
2022-09-27T12:42:42.670Z,19.70
2022-09-27T12:46:02.205Z,19.67
2022-09-27T12:49:14.482Z,19.62
2022-09-27T12:52:25.770Z,19.63
2022-09-27T12:55:53.715Z,19.66
2022-09-27T12:59:18.887Z,19.71
2022-09-27T13:03:10.997Z,19.77
2022-09-27T13:06:40.224Z,19.80
2022-09-27T13:10:15.979Z,19.83
2022-09-27T13:13:26.407Z,19.86
2022-09-27T13:16:32.625Z,19.86
2022-09-27T13:19:44.227Z,19.88
2022-09-27T13:22:50.551Z,19.89
2022-09-27T13:25:58.266Z,19.86
2022-09-27T13:29:05.138Z,19.78
2022-09-27T13:32:23.413Z,19.72
2022-09-27T13:35:30.042Z,19.64
2022-09-27T13:38:36.326Z,19.57
2022-09-27T13:42:05.002Z,19.53
2022-09-27T13:45:24.321Z,19.46
2022-09-27T13:48:40.492Z,19.41
2022-09-27T13:51:51.059Z,19.49
2022-09-27T13:54:59.790Z,19.97
2022-09-27T13:58:13.961Z,20.38
2022-09-27T14:01:28.570Z,20.69
2022-09-27T14:04:42.454Z,20.90
2022-09-27T14:07:52.030Z,21.00
2022-09-27T14:10:59.938Z,20.64
2022-09-27T14:14:07.713Z,20.30
2022-09-27T14:17:14.643Z,20.05
2022-09-27T14:20:47.274Z,19.85
2022-09-27T14:23:53.907Z,19.61
2022-09-27T14:27:17.466Z,19.53
2022-09-27T14:30:27.879Z,19.90
2022-09-27T14:33:35.533Z,20.21
2022-09-27T14:37:02.276Z,20.37
2022-09-27T14:40:20.636Z,20.50
2022-09-27T14:43:27.157Z,20.58
2022-09-27T14:46:34.527Z,20.63
2022-09-27T14:49:50.129Z,20.67
2022-09-27T14:52:57.793Z,20.71
2022-09-27T14:56:08.395Z,20.73
2022-09-27T14:59:18.947Z,20.75
2022-09-27T15:02:26.598Z,20.76
2022-09-27T15:05:34.884Z,20.77
2022-09-27T15:08:41.886Z,20.77
2022-09-27T15:11:52.989Z,20.78
2022-09-27T15:14:59.607Z,20.77
2022-09-27T15:18:20.471Z,20.75
2022-09-27T15:21:35.093Z,20.73
2022-09-27T15:24:45.623Z,20.70
2022-09-27T15:27:54.803Z,20.67
2022-09-27T15:31:01.773Z,20.63
2022-09-27T15:34:08.184Z,20.49
2022-09-27T15:37:28.427Z,19.94
2022-09-27T15:41:02.221Z,19.38
2022-09-27T15:44:36.591Z,19.08
2022-09-27T15:47:48.637Z,19.34
2022-09-27T15:50:55.130Z,19.51
2022-09-27T15:54:01.283Z,19.58
2022-09-27T15:57:12.635Z,19.61
2022-09-27T16:00:20.946Z,19.61
2022-09-27T16:03:28.175Z,19.61
2022-09-27T16:06:34.361Z,19.59
2022-09-27T16:09:40.783Z,19.58
2022-09-27T16:12:46.718Z,19.56
2022-09-27T16:15:53.450Z,19.54
2022-09-27T16:18:59.701Z,19.46
2022-09-27T16:22:05.695Z,19.36
2022-09-27T16:25:10.515Z,19.25
2022-09-27T16:28:16.598Z,19.07
2022-09-27T16:31:21.274Z,18.90
2022-09-27T16:34:27.869Z,18.64
2022-09-27T16:37:34.913Z,18.47
2022-09-27T16:40:41.039Z,18.31
2022-09-27T16:43:47.189Z,18.16
2022-09-27T16:46:53.317Z,18.01
2022-09-27T16:50:17.024Z,17.86
2022-09-27T16:53:23.190Z,17.75
2022-09-27T16:56:32.341Z,17.70
2022-09-27T16:59:38.795Z,17.65
2022-09-27T17:02:47.234Z,17.62
2022-09-27T17:05:53.482Z,17.57
2022-09-27T17:08:58.157Z,17.53
2022-09-27T17:12:07.595Z,17.44
2022-09-27T17:15:17.352Z,17.39
2022-09-27T17:18:23.345Z,17.35
2022-09-27T17:21:29.499Z,17.34
2022-09-27T17:24:33.982Z,17.30
2022-09-27T17:27:40.103Z,17.25
2022-09-27T17:30:45.448Z,17.26
2022-09-27T17:33:57.412Z,17.20
2022-09-27T17:37:05.182Z,17.13
2022-09-27T17:40:12.499Z,17.06
2022-09-27T17:43:18.526Z,17.02
2022-09-27T17:46:26.028Z,16.99
2022-09-27T17:49:49.562Z,16.98
2022-09-27T17:52:57.454Z,16.95
2022-09-27T17:56:05.579Z,16.92
2022-09-27T17:59:13.477Z,16.91
2022-09-27T18:02:20.382Z,16.90
2022-09-27T18:05:26.583Z,16.88
2022-09-27T18:08:32.409Z,16.85
2022-09-27T18:11:39.313Z,16.79
2022-09-27T18:14:45.957Z,16.75
2022-09-27T18:17:58.299Z,16.70
2022-09-27T18:21:06.210Z,16.66
2022-09-27T18:24:14.405Z,16.63
2022-09-27T18:27:21.327Z,16.59
2022-09-27T18:30:27.426Z,16.56
2022-09-27T18:33:32.201Z,16.54
2022-09-27T18:36:41.102Z,16.51
2022-09-27T18:39:47.222Z,16.52
2022-09-27T18:42:51.654Z,16.51
2022-09-27T18:46:17.812Z,16.49
2022-09-27T18:49:32.989Z,16.52
2022-09-27T18:52:40.077Z,16.49
2022-09-27T18:55:44.474Z,16.47
2022-09-27T18:58:51.898Z,16.42
2022-09-27T19:01:58.033Z,16.43
2022-09-27T19:05:03.375Z,16.42
2022-09-27T19:08:09.504Z,16.38
2022-09-27T19:11:14.377Z,16.39
2022-09-27T19:14:23.542Z,16.36
2022-09-27T19:17:29.635Z,16.34
2022-09-27T19:20:35.750Z,16.31
2022-09-27T19:23:44.906Z,16.26
2022-09-27T19:26:53.811Z,16.26
2022-09-27T19:30:00.411Z,16.26
2022-09-27T19:33:06.618Z,16.24
2022-09-27T19:36:14.666Z,16.22
2022-09-27T19:39:21.053Z,16.21
2022-09-27T19:42:27.100Z,16.21
2022-09-27T19:45:35.598Z,16.20
2022-09-27T19:48:42.036Z,16.19
2022-09-27T19:51:48.005Z,16.18
2022-09-27T19:54:54.045Z,16.17
2022-09-27T19:58:00.478Z,16.17
2022-09-27T20:01:08.651Z,16.16
2022-09-27T20:04:16.026Z,16.15
2022-09-27T20:07:22.123Z,16.14
2022-09-27T20:10:26.600Z,16.12
2022-09-27T20:13:33.764Z,16.08
2022-09-27T20:16:41.494Z,16.08
2022-09-27T20:19:47.838Z,16.09
2022-09-27T20:22:53.998Z,16.07
2022-09-27T20:26:05.141Z,16.06
2022-09-27T20:29:11.983Z,16.04
2022-09-27T20:32:33.624Z,16.05
2022-09-27T20:35:39.830Z,16.04
2022-09-27T20:38:47.826Z,16.03
2022-09-27T20:41:54.092Z,16.02
2022-09-27T20:45:00.433Z,16.01
2022-09-27T20:48:06.927Z,16.02
2022-09-27T20:51:15.419Z,16.02
2022-09-27T20:54:21.536Z,16.00
2022-09-27T20:57:46.221Z,15.99
2022-09-27T21:00:52.799Z,15.95
2022-09-27T21:04:00.379Z,15.97
2022-09-27T21:07:06.518Z,15.98
2022-09-27T21:10:11.363Z,15.99
2022-09-27T21:13:18.103Z,15.96
2022-09-27T21:16:26.094Z,15.98
2022-09-27T21:19:32.329Z,15.98
2022-09-27T21:22:36.806Z,15.98
2022-09-27T21:25:43.023Z,15.96
2022-09-27T21:28:48.526Z,15.97
2022-09-27T21:31:54.741Z,15.94
2022-09-27T21:35:01.132Z,15.94
2022-09-27T21:38:07.338Z,15.92
2022-09-27T21:41:14.787Z,15.91
2022-09-27T21:44:20.957Z,15.87
2022-09-27T21:47:25.414Z,15.89
2022-09-27T21:50:32.114Z,15.87
2022-09-27T21:53:39.625Z,15.87
2022-09-27T21:56:46.693Z,15.87
2022-09-27T21:59:52.835Z,15.87
2022-09-27T22:02:59.800Z,15.88
2022-09-27T22:06:07.279Z,15.86
2022-09-27T22:09:17.179Z,15.86
2022-09-27T22:12:23.449Z,15.86
2022-09-27T22:15:29.614Z,15.85
2022-09-27T22:18:35.450Z,15.85
2022-09-27T22:21:40.069Z,15.82
2022-09-27T22:24:46.167Z,15.79
2022-09-27T22:27:50.845Z,15.81
2022-09-27T22:30:57.306Z,15.79
2022-09-27T22:34:04.730Z,15.80
2022-09-27T22:37:10.877Z,15.81
2022-09-27T22:40:15.502Z,15.81
2022-09-27T22:43:21.751Z,15.78
2022-09-27T22:46:26.536Z,15.78
2022-09-27T22:49:32.690Z,15.76
2022-09-27T22:52:37.138Z,15.77
2022-09-27T22:55:43.498Z,15.73
2022-09-27T22:58:50.577Z,15.74
2022-09-27T23:01:56.718Z,15.73
2022-09-27T23:05:01.148Z,15.72
2022-09-27T23:08:07.294Z,15.68
2022-09-27T23:11:12.694Z,15.69
2022-09-27T23:14:21.692Z,15.65
2022-09-27T23:17:27.645Z,15.64
2022-09-27T23:20:33.702Z,15.62
2022-09-27T23:23:42.061Z,15.61
2022-09-27T23:27:09.287Z,15.60
2022-09-27T23:30:17.408Z,15.59
2022-09-27T23:33:23.589Z,15.58
2022-09-27T23:36:28.266Z,15.57
2022-09-27T23:39:34.359Z,15.55
2022-09-27T23:42:38.800Z,15.56
2022-09-27T23:45:45.155Z,15.55
2022-09-27T23:48:51.230Z,15.57
2022-09-27T23:51:57.620Z,15.57
2022-09-27T23:55:03.949Z,15.57
2022-09-27T23:58:10.694Z,15.56
